createdAt,value
2023-05-10T00:00:44.834Z,11.15
2023-05-10T00:03:13.026Z,11.14
2023-05-10T00:05:42.329Z,11.12
2023-05-10T00:08:10.339Z,11.13
2023-05-10T00:10:38.745Z,11.13
2023-05-10T00:13:09.918Z,11.11
2023-05-10T00:15:38.345Z,11.10
2023-05-10T00:18:06.502Z,11.09
2023-05-10T00:20:34.606Z,11.07
2023-05-10T00:23:03.830Z,11.02
2023-05-10T00:25:31.628Z,11.03
2023-05-10T00:27:59.682Z,11.04
2023-05-10T00:30:27.467Z,11.03
2023-05-10T00:32:55.613Z,11.01
2023-05-10T00:35:23.748Z,10.99
2023-05-10T00:37:51.473Z,10.94
2023-05-10T00:40:20.760Z,10.93
2023-05-10T00:42:48.777Z,10.93
2023-05-10T00:45:17.136Z,10.93
2023-05-10T00:47:45.210Z,10.92
2023-05-10T00:50:13.397Z,10.74
2023-05-10T00:52:41.393Z,10.86
2023-05-10T00:55:10.429Z,10.89
2023-05-10T00:57:39.861Z,10.86
2023-05-10T01:00:08.994Z,10.86
2023-05-10T01:02:36.989Z,10.79
2023-05-10T01:05:06.294Z,10.86
2023-05-10T01:07:34.441Z,10.86
2023-05-10T01:10:02.252Z,10.85
2023-05-10T01:12:30.079Z,10.86
2023-05-10T01:14:59.729Z,10.86
2023-05-10T01:17:28.254Z,10.87
2023-05-10T01:19:56.151Z,10.84
2023-05-10T01:22:47.403Z,10.84
2023-05-10T01:25:32.706Z,10.84
2023-05-10T01:28:25.211Z,10.71
2023-05-10T01:31:14.906Z,10.83
2023-05-10T01:33:49.707Z,10.81
2023-05-10T01:36:27.271Z,10.81
2023-05-10T01:38:59.647Z,10.81
2023-05-10T01:41:31.281Z,10.80
2023-05-10T01:44:08.664Z,10.80
2023-05-10T01:46:39.392Z,10.73
2023-05-10T01:49:10.950Z,10.79
2023-05-10T01:51:42.208Z,10.76
2023-05-10T01:54:11.862Z,10.74
2023-05-10T01:56:40.139Z,10.75
2023-05-10T01:59:12.820Z,10.76
2023-05-10T02:01:40.832Z,10.75
2023-05-10T02:04:11.110Z,10.52
2023-05-10T02:06:40.508Z,10.69
2023-05-10T02:09:09.169Z,10.71
2023-05-10T02:11:37.585Z,10.71
2023-05-10T02:14:05.749Z,10.70
2023-05-10T02:16:34.336Z,10.68
2023-05-10T02:19:03.973Z,10.64
2023-05-10T02:21:33.782Z,10.67
2023-05-10T02:24:03.238Z,10.66
2023-05-10T02:26:31.114Z,10.65
2023-05-10T02:28:59.801Z,10.65
2023-05-10T02:31:28.468Z,10.65
2023-05-10T02:33:56.690Z,10.66
2023-05-10T02:36:25.017Z,10.69
2023-05-10T02:38:54.810Z,10.70
2023-05-10T02:41:23.552Z,10.53
2023-05-10T02:43:52.660Z,10.70
2023-05-10T02:46:20.768Z,10.73
2023-05-10T02:48:48.588Z,10.75
2023-05-10T02:51:18.595Z,10.75
2023-05-10T02:53:48.279Z,10.54
2023-05-10T02:56:23.863Z,10.72
2023-05-10T02:58:51.632Z,10.72
2023-05-10T03:01:19.530Z,10.75
2023-05-10T03:03:47.351Z,10.70
2023-05-10T03:06:15.453Z,10.71
2023-05-10T03:08:43.217Z,10.69
2023-05-10T03:11:25.057Z,10.70
2023-05-10T03:14:01.778Z,10.69
2023-05-10T03:16:45.165Z,10.70
2023-05-10T03:19:18.954Z,10.64
2023-05-10T03:21:52.202Z,10.69
2023-05-10T03:24:21.281Z,10.69
2023-05-10T03:26:51.510Z,10.70
2023-05-10T03:29:19.496Z,10.57
2023-05-10T03:31:47.365Z,10.68
2023-05-10T03:34:15.348Z,10.71
2023-05-10T03:36:43.202Z,10.73
2023-05-10T03:39:11.511Z,10.74
2023-05-10T03:41:39.316Z,10.74
2023-05-10T03:44:08.421Z,10.72
2023-05-10T03:46:36.184Z,10.71
2023-05-10T03:49:03.985Z,10.71
2023-05-10T03:51:32.203Z,10.72
2023-05-10T03:53:59.973Z,10.72
2023-05-10T03:56:27.772Z,10.71
2023-05-10T03:58:55.578Z,10.69
2023-05-10T04:01:24.701Z,10.73
2023-05-10T04:03:52.748Z,10.74
2023-05-10T04:06:20.582Z,10.73
2023-05-10T04:08:48.390Z,10.74
2023-05-10T04:11:16.162Z,10.75
2023-05-10T04:13:44.771Z,10.76
2023-05-10T04:16:12.500Z,10.75
2023-05-10T04:18:41.761Z,10.73
2023-05-10T04:21:14.411Z,10.74
2023-05-10T04:23:42.446Z,10.72
2023-05-10T04:26:10.261Z,10.72
2023-05-10T04:28:38.125Z,10.70
2023-05-10T04:31:06.072Z,10.75
2023-05-10T04:33:34.344Z,10.60
2023-05-10T04:36:03.579Z,10.78
2023-05-10T04:38:31.547Z,10.78
2023-05-10T04:41:06.243Z,10.82
2023-05-10T04:43:34.095Z,10.81
2023-05-10T04:46:01.965Z,10.83
2023-05-10T04:48:29.856Z,10.85
2023-05-10T04:50:57.692Z,10.82
2023-05-10T04:53:26.946Z,10.84
2023-05-10T04:55:54.740Z,10.82
2023-05-10T04:58:22.523Z,10.83
2023-05-10T05:00:50.280Z,10.85
2023-05-10T05:03:18.290Z,10.84
2023-05-10T05:05:46.641Z,10.81
2023-05-10T05:08:14.844Z,10.83
2023-05-10T05:10:44.146Z,10.82
2023-05-10T05:13:12.413Z,10.82
2023-05-10T05:15:40.315Z,10.82
2023-05-10T05:18:08.221Z,10.86
2023-05-10T05:20:36.066Z,10.87
2023-05-10T05:23:03.998Z,10.89
2023-05-10T05:25:31.799Z,10.91
2023-05-10T05:28:00.923Z,10.93
2023-05-10T05:30:28.824Z,10.96
2023-05-10T05:32:56.683Z,10.97
2023-05-10T05:35:24.434Z,11.01
2023-05-10T05:37:52.248Z,11.03
2023-05-10T05:40:21.377Z,11.11
2023-05-10T05:42:49.200Z,11.15
2023-05-10T05:45:18.727Z,11.21
2023-05-10T05:47:47.838Z,11.27
2023-05-10T05:50:15.814Z,11.37
2023-05-10T05:52:43.580Z,11.56
2023-05-10T05:55:11.403Z,11.73
2023-05-10T05:57:39.306Z,11.86
2023-05-10T06:00:08.584Z,11.93
2023-05-10T06:02:37.925Z,12.06
2023-05-10T06:05:06.498Z,11.98
2023-05-10T06:07:34.253Z,11.95
2023-05-10T06:10:02.101Z,11.96
2023-05-10T06:12:29.867Z,11.93
2023-05-10T06:14:57.621Z,11.88
2023-05-10T06:17:26.242Z,11.71
2023-05-10T06:19:55.494Z,11.85
2023-05-10T06:22:23.783Z,11.93
2023-05-10T06:24:51.685Z,11.97
2023-05-10T06:27:19.409Z,12.02
2023-05-10T06:29:47.322Z,12.07
2023-05-10T06:32:15.094Z,12.11
2023-05-10T06:34:44.420Z,12.17
2023-05-10T06:37:13.521Z,12.28
2023-05-10T06:39:41.299Z,12.36
2023-05-10T06:42:09.117Z,12.46
2023-05-10T06:44:36.956Z,12.48
2023-05-10T06:47:04.817Z,12.49
2023-05-10T06:49:32.609Z,12.52
2023-05-10T06:52:00.431Z,12.51
2023-05-10T06:54:29.627Z,12.68
2023-05-10T06:56:57.396Z,12.83
2023-05-10T06:59:25.424Z,12.87
2023-05-10T07:01:53.238Z,12.91
2023-05-10T07:04:21.057Z,13.02
2023-05-10T07:06:50.588Z,12.99
2023-05-10T07:09:18.399Z,13.02
2023-05-10T07:11:47.557Z,13.00
2023-05-10T07:14:15.312Z,12.88
2023-05-10T07:16:43.385Z,13.03
2023-05-10T07:19:11.291Z,12.94
2023-05-10T07:21:39.046Z,12.80
2023-05-10T07:24:07.137Z,12.71
2023-05-10T07:26:34.923Z,12.78
2023-05-10T07:29:04.250Z,12.85
2023-05-10T07:31:32.069Z,12.89
2023-05-10T07:33:59.806Z,12.90
2023-05-10T07:36:27.744Z,12.88
2023-05-10T07:38:55.685Z,12.92
2023-05-10T07:41:23.448Z,12.85
2023-05-10T07:43:51.368Z,12.84
2023-05-10T07:46:20.811Z,12.66
2023-05-10T07:48:48.577Z,12.74
2023-05-10T07:51:16.430Z,12.70
2023-05-10T07:53:44.230Z,12.73
2023-05-10T07:56:26.186Z,12.79
2023-05-10T07:58:54.055Z,12.70
2023-05-10T08:01:23.342Z,12.73
2023-05-10T08:03:52.149Z,12.75
2023-05-10T08:06:20.368Z,12.70
2023-05-10T08:08:50.475Z,12.66
2023-05-10T08:11:18.729Z,12.59
2023-05-10T08:13:46.750Z,12.59
2023-05-10T08:16:14.663Z,12.59
2023-05-10T08:18:43.999Z,12.65
2023-05-10T08:21:12.399Z,12.70
2023-05-10T08:23:40.406Z,12.74
2023-05-10T08:26:08.592Z,12.80
2023-05-10T08:28:36.349Z,12.84
2023-05-10T08:31:04.249Z,12.94
2023-05-10T08:33:32.071Z,12.97
2023-05-10T08:36:01.186Z,13.05
2023-05-10T08:38:28.968Z,13.09
2023-05-10T08:40:59.474Z,13.14
2023-05-10T08:43:30.018Z,13.18
2023-05-10T08:45:58.413Z,13.16
2023-05-10T08:48:27.030Z,13.21
2023-05-10T08:50:56.498Z,13.34
2023-05-10T08:53:28.286Z,13.42
2023-05-10T08:55:57.291Z,13.49
2023-05-10T08:58:25.035Z,13.64
2023-05-10T09:00:53.465Z,13.74
2023-05-10T09:03:21.250Z,13.77
2023-05-10T09:05:49.215Z,13.88
2023-05-10T09:08:17.624Z,13.91
2023-05-10T09:10:48.451Z,13.91
2023-05-10T09:13:17.258Z,13.96
2023-05-10T09:15:46.671Z,13.79
2023-05-10T09:18:14.537Z,13.69
2023-05-10T09:20:42.727Z,13.53
2023-05-10T09:23:10.722Z,13.39
2023-05-10T09:25:39.736Z,13.13
2023-05-10T09:28:10.491Z,13.21
2023-05-10T09:30:38.356Z,13.14
2023-05-10T09:33:06.224Z,13.03
2023-05-10T09:35:35.032Z,13.01
2023-05-10T09:38:04.800Z,13.08
2023-05-10T09:40:33.218Z,13.16
2023-05-10T09:43:02.907Z,13.22
2023-05-10T09:45:33.112Z,13.19
2023-05-10T09:48:02.811Z,13.33
2023-05-10T09:50:31.273Z,13.40
2023-05-10T09:53:00.671Z,13.44
2023-05-10T09:55:41.195Z,13.45
2023-05-10T09:58:11.614Z,13.49
2023-05-10T10:00:42.269Z,13.43
2023-05-10T10:03:14.927Z,13.44
2023-05-10T10:05:43.613Z,13.53
2023-05-10T10:08:11.806Z,13.57
2023-05-10T10:10:41.246Z,13.49
2023-05-10T10:13:09.691Z,13.94
2023-05-10T10:15:37.725Z,13.96
2023-05-10T10:18:07.457Z,14.32
2023-05-10T10:20:35.869Z,14.18
2023-05-10T10:23:04.353Z,14.01
2023-05-10T10:25:32.221Z,14.16
2023-05-10T10:28:11.478Z,14.24
2023-05-10T10:30:43.442Z,14.29
2023-05-10T10:33:36.756Z,14.62
2023-05-10T10:36:05.754Z,14.60
2023-05-10T10:38:58.957Z,14.70
2023-05-10T10:41:31.887Z,14.43
2023-05-10T10:44:24.668Z,14.72
2023-05-10T10:47:03.416Z,14.83
2023-05-10T10:49:34.836Z,14.76
2023-05-10T10:52:16.079Z,14.66
2023-05-10T10:54:44.014Z,14.59
2023-05-10T10:57:15.622Z,14.66
2023-05-10T10:59:46.639Z,14.58
2023-05-10T11:02:35.084Z,14.83
2023-05-10T11:05:28.000Z,15.05
2023-05-10T11:07:56.107Z,15.37
2023-05-10T11:10:24.330Z,15.32
2023-05-10T11:12:56.696Z,15.29
2023-05-10T11:15:31.546Z,15.26
2023-05-10T11:18:00.238Z,15.69
2023-05-10T11:20:34.372Z,16.06
2023-05-10T11:23:13.898Z,16.45
2023-05-10T11:25:45.064Z,16.58
2023-05-10T11:28:13.352Z,16.88
2023-05-10T11:30:41.875Z,16.99
2023-05-10T11:33:10.103Z,16.93
2023-05-10T11:35:43.621Z,17.02
2023-05-10T11:38:12.458Z,16.88
2023-05-10T11:40:40.927Z,16.75
2023-05-10T11:43:08.701Z,17.26
2023-05-10T11:45:37.021Z,17.23
2023-05-10T11:48:05.056Z,17.25
2023-05-10T11:50:32.860Z,17.26
2023-05-10T11:53:01.991Z,16.91
2023-05-10T11:55:31.265Z,16.85
2023-05-10T11:58:04.567Z,16.76
2023-05-10T12:00:32.694Z,16.64
2023-05-10T12:03:00.829Z,16.75
2023-05-10T12:05:28.840Z,16.91
2023-05-10T12:08:16.409Z,16.42
2023-05-10T12:10:44.283Z,16.31
2023-05-10T12:13:16.407Z,16.28
2023-05-10T12:15:45.486Z,16.17
2023-05-10T12:18:13.911Z,16.06
2023-05-10T12:20:42.394Z,16.05
2023-05-10T12:23:11.515Z,15.85
2023-05-10T12:25:41.181Z,15.59
2023-05-10T12:28:10.948Z,15.50
2023-05-10T12:30:39.503Z,15.42
2023-05-10T12:33:11.054Z,15.51
2023-05-10T12:35:49.399Z,15.42
2023-05-10T12:38:31.989Z,15.46
2023-05-10T12:41:02.786Z,15.35
2023-05-10T12:43:31.230Z,15.23
2023-05-10T12:45:59.161Z,15.21
2023-05-10T12:48:29.760Z,15.10
2023-05-10T12:50:57.620Z,15.20
2023-05-10T12:53:25.446Z,15.20
2023-05-10T12:55:53.226Z,15.25
2023-05-10T13:00:57.409Z,15.31
2023-05-10T13:03:25.536Z,15.44
2023-05-10T13:05:53.370Z,15.40
2023-05-10T13:08:21.188Z,15.44
2023-05-10T13:10:48.954Z,15.58
2023-05-10T13:13:19.236Z,15.58
2023-05-10T13:15:48.667Z,15.70
2023-05-10T13:18:16.583Z,15.87
2023-05-10T13:20:45.290Z,15.99
2023-05-10T13:23:13.078Z,15.92
2023-05-10T13:25:41.048Z,15.79
2023-05-10T13:28:08.867Z,15.86
2023-05-10T13:30:36.848Z,15.81
2023-05-10T13:33:06.328Z,15.96
2023-05-10T13:35:34.222Z,16.15
2023-05-10T13:38:02.271Z,16.08
2023-05-10T13:40:30.192Z,15.95
2023-05-10T13:42:57.969Z,16.02
2023-05-10T13:45:25.761Z,16.12
2023-05-10T13:47:53.583Z,16.12
2023-05-10T13:50:22.951Z,15.91
2023-05-10T13:52:50.910Z,15.97
2023-05-10T13:55:19.000Z,15.92
2023-05-10T13:57:47.157Z,16.12
2023-05-10T14:00:16.173Z,16.18
2023-05-10T14:02:44.065Z,16.34
2023-05-10T14:05:12.744Z,16.48
2023-05-10T14:07:42.208Z,16.43
2023-05-10T14:10:10.659Z,16.15
2023-05-10T14:12:38.481Z,16.45
2023-05-10T14:15:07.801Z,16.51
2023-05-10T14:17:35.697Z,16.37
2023-05-10T14:20:04.748Z,16.46
2023-05-10T14:22:32.532Z,16.42
2023-05-10T14:25:02.304Z,16.56
2023-05-10T14:27:30.116Z,16.41
2023-05-10T14:29:57.870Z,16.51
2023-05-10T14:32:25.888Z,16.61
2023-05-10T14:34:53.674Z,16.64
2023-05-10T14:37:22.039Z,16.80
2023-05-10T14:39:49.874Z,17.00
2023-05-10T14:42:19.083Z,17.05
2023-05-10T14:44:46.928Z,17.05
2023-05-10T14:47:15.418Z,17.19
2023-05-10T14:49:43.221Z,17.23
2023-05-10T14:52:11.170Z,17.15
2023-05-10T14:54:39.614Z,17.15
2023-05-10T14:57:07.502Z,16.94
2023-05-10T14:59:36.664Z,16.73
2023-05-10T15:02:05.282Z,16.38
2023-05-10T15:04:33.520Z,16.35
2023-05-10T15:07:01.829Z,16.17
2023-05-10T15:09:29.590Z,16.02
2023-05-10T15:11:57.386Z,15.95
2023-05-10T15:14:25.206Z,15.80
2023-05-10T15:16:54.381Z,15.78
2023-05-10T15:19:22.233Z,15.83
2023-05-10T15:21:49.993Z,15.78
2023-05-10T15:24:17.828Z,15.62
2023-05-10T15:26:45.818Z,15.61
2023-05-10T15:29:20.541Z,15.64
2023-05-10T15:31:49.143Z,15.60
2023-05-10T15:34:19.050Z,15.72
2023-05-10T15:36:46.853Z,15.75
2023-05-10T15:39:14.612Z,15.87
2023-05-10T15:41:42.644Z,16.00
2023-05-10T15:44:10.434Z,16.10
2023-05-10T15:46:38.972Z,16.14
2023-05-10T15:49:07.595Z,16.22
2023-05-10T15:51:36.930Z,16.42
2023-05-10T15:54:08.887Z,16.55
2023-05-10T15:56:37.012Z,16.60
2023-05-10T15:59:06.083Z,16.62
2023-05-10T16:01:33.934Z,16.54
2023-05-10T16:04:01.950Z,16.61
2023-05-10T16:06:29.796Z,16.56
2023-05-10T16:08:58.949Z,16.52
2023-05-10T16:11:26.917Z,16.54
2023-05-10T16:13:54.702Z,16.45
2023-05-10T16:16:22.597Z,16.25
2023-05-10T16:18:50.602Z,16.03
2023-05-10T16:21:18.447Z,15.98
2023-05-10T16:23:46.634Z,15.95
2023-05-10T16:26:15.813Z,15.92
2023-05-10T16:28:43.756Z,15.96
2023-05-10T16:31:11.656Z,16.04
2023-05-10T16:33:39.500Z,16.02
2023-05-10T16:36:07.412Z,15.98
2023-05-10T16:38:35.218Z,16.02
2023-05-10T16:41:03.607Z,16.02
2023-05-10T16:43:33.542Z,16.02
2023-05-10T16:46:01.770Z,16.03
2023-05-10T16:48:29.698Z,15.97
2023-05-10T16:50:57.543Z,15.99
2023-05-10T16:53:26.112Z,16.03
2023-05-10T16:55:53.993Z,16.14
2023-05-10T16:58:21.802Z,16.23
2023-05-10T17:00:51.024Z,16.29
2023-05-10T17:03:18.830Z,16.29
2023-05-10T17:05:46.766Z,16.23
2023-05-10T17:08:14.527Z,16.29
2023-05-10T17:10:42.451Z,16.30
2023-05-10T17:13:10.680Z,16.34
2023-05-10T17:15:38.822Z,16.36
2023-05-10T17:18:08.238Z,16.23
2023-05-10T17:20:36.083Z,16.11
2023-05-10T17:23:03.902Z,16.04
2023-05-10T17:25:31.697Z,16.07
2023-05-10T17:27:59.508Z,15.91
2023-05-10T17:30:28.852Z,16.12
2023-05-10T17:32:56.723Z,16.09
2023-05-10T17:35:25.952Z,16.08
2023-05-10T17:37:53.750Z,16.02
2023-05-10T17:40:21.749Z,15.94
2023-05-10T17:42:49.614Z,15.89
2023-05-10T17:45:18.682Z,15.76
2023-05-10T17:47:46.733Z,15.67
2023-05-10T17:50:14.565Z,15.62
2023-05-10T17:52:43.788Z,15.52
2023-05-10T17:55:13.350Z,15.46
2023-05-10T17:57:41.181Z,15.46
2023-05-10T18:00:10.477Z,15.48
2023-05-10T18:02:38.413Z,15.48
2023-05-10T18:05:07.243Z,15.45
2023-05-10T18:07:35.947Z,15.38
2023-05-10T18:10:05.729Z,15.34
2023-05-10T18:12:33.451Z,15.29
2023-05-10T18:15:01.416Z,15.20
2023-05-10T18:17:29.422Z,15.14
2023-05-10T18:19:57.380Z,15.13
2023-05-10T18:22:25.183Z,15.10
2023-05-10T18:24:53.216Z,15.11
2023-05-10T18:27:22.356Z,15.13
2023-05-10T18:29:50.114Z,14.92
2023-05-10T18:32:17.891Z,15.10
2023-05-10T18:34:45.687Z,15.05
2023-05-10T18:37:13.638Z,14.99
2023-05-10T18:39:41.412Z,14.94
2023-05-10T18:42:09.766Z,14.89
2023-05-10T18:44:38.931Z,14.78
2023-05-10T18:47:06.750Z,14.58
2023-05-10T18:49:34.648Z,14.32
2023-05-10T18:52:02.403Z,14.10
2023-05-10T18:54:30.203Z,13.96
2023-05-10T18:56:58.730Z,13.81
2023-05-10T18:59:27.837Z,13.72
2023-05-10T19:01:57.720Z,13.67
2023-05-10T19:04:25.690Z,13.63
2023-05-10T19:06:53.452Z,13.58
2023-05-10T19:09:21.242Z,13.54
2023-05-10T19:11:49.256Z,13.49
2023-05-10T19:14:17.025Z,13.48
2023-05-10T19:16:44.896Z,13.46
2023-05-10T19:19:15.041Z,13.40
2023-05-10T19:21:42.821Z,13.40
2023-05-10T19:24:11.999Z,13.38
2023-05-10T19:26:39.921Z,13.36
2023-05-10T19:29:07.756Z,13.30
2023-05-10T19:31:35.700Z,13.22
2023-05-10T19:34:05.455Z,13.17
2023-05-10T19:36:34.972Z,13.17
2023-05-10T19:39:02.823Z,13.16
2023-05-10T19:41:30.641Z,13.15
2023-05-10T19:43:58.386Z,12.97
2023-05-10T19:46:26.193Z,12.86
2023-05-10T19:48:53.944Z,12.77
2023-05-10T19:51:21.793Z,12.67
2023-05-10T19:53:50.899Z,12.65
2023-05-10T19:56:19.618Z,12.62
2023-05-10T19:58:48.010Z,12.57
2023-05-10T20:01:16.081Z,12.59
2023-05-10T20:03:44.009Z,12.55
2023-05-10T20:06:12.263Z,12.57
2023-05-10T20:08:40.031Z,12.57
2023-05-10T20:11:09.198Z,12.53
2023-05-10T20:13:36.979Z,12.48
2023-05-10T20:16:06.237Z,12.46
2023-05-10T20:18:34.529Z,12.44
2023-05-10T20:21:02.412Z,12.23
2023-05-10T20:23:30.452Z,12.35
2023-05-10T20:25:58.227Z,12.30
2023-05-10T20:28:28.353Z,12.28
2023-05-10T20:30:56.655Z,12.31
2023-05-10T20:33:24.714Z,12.28
2023-05-10T20:35:52.692Z,12.24
2023-05-10T20:38:21.148Z,12.18
2023-05-10T20:40:49.079Z,12.14
2023-05-10T20:43:16.960Z,12.09
2023-05-10T20:45:46.701Z,12.04
2023-05-10T20:48:14.716Z,12.01
2023-05-10T20:50:42.442Z,11.98
2023-05-10T20:53:10.347Z,11.92
2023-05-10T20:55:38.454Z,11.88
2023-05-10T20:58:06.260Z,11.86
2023-05-10T21:00:34.014Z,11.82
2023-05-10T21:03:03.312Z,11.79
2023-05-10T21:05:31.514Z,11.74
2023-05-10T21:07:59.341Z,11.68
2023-05-10T21:10:28.359Z,11.65
2023-05-10T21:12:56.274Z,11.59
2023-05-10T21:15:25.585Z,11.58
2023-05-10T21:17:54.163Z,11.54
2023-05-10T21:20:23.564Z,11.46
2023-05-10T21:22:51.284Z,11.42
2023-05-10T21:25:19.215Z,11.37
2023-05-10T21:27:47.291Z,11.32
2023-05-10T21:30:15.421Z,11.25
2023-05-10T21:32:43.360Z,11.20
2023-05-10T21:35:12.757Z,11.17
2023-05-10T21:37:42.147Z,11.11
2023-05-10T21:40:11.417Z,11.04
2023-05-10T21:42:39.434Z,11.03
2023-05-10T21:45:08.465Z,11.00
2023-05-10T21:47:36.497Z,10.99
2023-05-10T21:50:04.652Z,10.98
2023-05-10T21:52:32.887Z,11.00
2023-05-10T21:55:02.084Z,11.16
2023-05-10T21:57:29.938Z,11.26
2023-05-10T21:59:57.698Z,11.38
2023-05-10T22:02:25.736Z,11.36
2023-05-10T22:04:53.590Z,11.37
2023-05-10T22:07:21.731Z,11.29
2023-05-10T22:09:49.645Z,11.32
2023-05-10T22:12:18.776Z,11.37
2023-05-10T22:14:47.542Z,11.40
2023-05-10T22:17:17.960Z,11.35
2023-05-10T22:19:45.762Z,11.30
2023-05-10T22:22:13.568Z,11.18
2023-05-10T22:24:41.518Z,11.12
2023-05-10T22:27:09.352Z,11.13
2023-05-10T22:29:38.516Z,11.05
2023-05-10T22:32:06.748Z,10.99
2023-05-10T22:34:35.490Z,11.02
2023-05-10T22:37:03.880Z,11.06
2023-05-10T22:39:31.943Z,11.02
2023-05-10T22:42:00.030Z,10.95
2023-05-10T22:44:27.846Z,10.97
2023-05-10T22:46:57.032Z,10.87
2023-05-10T22:49:24.801Z,10.94
2023-05-10T22:51:52.595Z,10.91
2023-05-10T22:54:20.428Z,10.86
2023-05-10T22:56:48.217Z,10.77
2023-05-10T22:59:16.209Z,10.87
2023-05-10T23:01:44.252Z,10.76
2023-05-10T23:04:13.552Z,10.75
2023-05-10T23:06:41.922Z,10.71
2023-05-10T23:09:10.116Z,10.71
2023-05-10T23:11:37.968Z,10.68
2023-05-10T23:14:05.795Z,10.57
2023-05-10T23:16:33.941Z,10.55
2023-05-10T23:19:02.155Z,10.70
2023-05-10T23:21:32.255Z,10.39
2023-05-10T23:24:00.344Z,10.64
2023-05-10T23:26:28.568Z,10.51
2023-05-10T23:28:56.436Z,10.61
2023-05-10T23:31:24.325Z,10.66
2023-05-10T23:33:52.387Z,10.69
2023-05-10T23:36:20.247Z,10.72
2023-05-10T23:38:49.569Z,10.73
2023-05-10T23:41:17.694Z,10.76
2023-05-10T23:43:45.599Z,10.71
2023-05-10T23:46:13.646Z,10.70
2023-05-10T23:48:41.651Z,10.66
2023-05-10T23:51:09.469Z,10.64
2023-05-10T23:53:37.619Z,10.68
2023-05-10T23:56:07.517Z,10.45
2023-05-10T23:58:35.376Z,10.63
